Time;durP1;ratioP1;P1;durP2;ratioP2;P2;SDS_P1;SDS_P2;PMS_P1;PMS_P2;Temp;Humidity;BMP_temperature;BMP_pressure;BME280_temperature;BME280_humidity;BME280_pressure;Samples;Min_cycle;Max_cycle;Signal;HPM_P1;HPM_P2
2022/08/12 00:45:09;;;;;;;12.95;7.55;;;16.50;99.90;;;;;;5076720;28;20052;-74
2022/08/12 00:47:38;;;;;;;17.95;8.15;;;16.30;99.90;;;;;;5042368;28;20055;-74
2022/08/12 00:50:08;;;;;;;11.50;6.68;;;16.30;99.90;;;;;;5057468;28;20084;-74
2022/08/12 00:52:37;;;;;;;15.43;7.43;;;16.10;99.90;;;;;;5059003;28;20049;-76
2022/08/12 00:55:04;;;;;;;;;;;16.10;99.90;;;;;;5075911;28;20048;-76
2022/08/12 00:57:35;;;;;;;11.57;7.45;;;15.90;99.90;;;;;;5075730;28;20274;-75
2022/08/12 01:00:12;;;;;;;13.65;7.32;;;16.00;99.90;;;;;;5042267;28;20063;-74
2022/08/12 01:02:44;;;;;;;19.40;7.85;;;16.00;99.90;;;;;;5074691;28;20071;-74
2022/08/12 01:13:41;;;;;;;15.05;7.63;;;15.80;99.90;;;;;;5075024;28;20052;-75
2022/08/12 01:16:10;;;;;;;16.13;7.90;;;16.10;99.90;;;;;;5057637;28;20056;-74
2022/08/12 01:18:39;;;;;;;12.70;7.70;;;15.80;99.90;;;;;;5057761;28;20059;-74
2022/08/12 01:21:18;;;;;;;17.92;7.78;;;15.80;99.90;;;;;;5074949;28;20044;-74
2022/08/12 01:24:16;;;;;;;12.27;6.88;;;15.70;99.90;;;;;;5058221;28;20052;-76
2022/08/12 01:27:00;;;;;;;18.30;7.18;;;15.70;99.90;;;;;;5060264;28;20040;-76
2022/08/12 01:29:30;;;;;;;16.77;6.68;;;15.70;99.90;;;;;;5040388;28;20502;-75
2022/08/12 01:32:05;;;;;;;13.52;6.68;;;15.80;99.90;;;;;;5075626;28;20044;-74
2022/08/12 01:34:37;;;;;;;12.55;6.78;;;15.80;99.90;;;;;;5057204;28;20060;-73
2022/08/12 01:37:07;;;;;;;12.77;6.95;;;15.90;99.90;;;;;;5075602;28;20055;-76
2022/08/12 01:39:44;;;;;;;14.48;7.45;;;15.60;99.90;;;;;;5041397;28;20463;-76
2022/08/12 01:42:48;;;;;;;16.63;7.55;;;15.70;99.90;;;;;;5056810;28;20036;-75
2022/08/12 01:45:21;;;;;;;14.18;7.45;;;15.70;99.90;;;;;;5075266;28;20045;-75
2022/08/12 01:48:13;;;;;;;16.25;7.45;;;15.60;99.90;;;;;;5057013;28;20051;-76
2022/08/12 01:51:08;;;;;;;13.85;7.28;;;15.50;99.90;;;;;;5057727;28;20040;-76
2022/08/12 01:54:03;;;;;;;15.35;6.80;;;15.50;99.90;;;;;;5057986;28;20055;-75
2022/08/12 01:56:50;;;;;;;15.25;7.15;;;15.60;99.90;;;;;;5073901;28;20044;-74
2022/08/12 01:59:48;;;;;;;16.25;7.20;;;15.40;99.90;;;;;;5075534;28;20052;-76
2022/08/12 02:02:21;;;;;;;12.75;6.05;;;15.60;99.90;;;;;;5039891;28;20044;-76
2022/08/12 02:11:17;;;;;;;15.82;7.20;;;15.30;99.90;;;;;;5074892;28;20482;-74
2022/08/12 02:13:54;;;;;;;15.50;7.55;;;15.20;99.90;;;;;;5075020;28;20040;-76
2022/08/12 02:16:40;;;;;;;16.20;7.53;;;15.30;99.90;;;;;;5056438;28;20049;-74
2022/08/12 02:19:39;;;;;;;15.95;7.32;;;15.20;99.90;;;;;;5057620;28;20063;-74
2022/08/12 02:22:27;;;;;;;12.55;6.78;;;15.20;99.90;;;;;;5074108;28;20051;-75
2022/08/12 02:25:17;;;;;;;;;;;15.20;99.90;;;;;;5076487;28;20044;-76
2022/08/12 02:27:47;;;;;;;20.65;7.72;;;14.80;99.90;;;;;;5030932;28;19920;-76
2022/08/12 02:30:21;;;;;;;15.93;7.78;;;15.10;99.90;;;;;;5061641;28;20048;-75
2022/08/12 02:32:51;;;;;;;15.77;7.85;;;15.10;99.90;;;;;;5078768;28;20052;-76
2022/08/12 02:35:22;;;;;;;12.15;6.97;;;15.10;99.90;;;;;;5077961;28;20070;-75
2022/08/12 02:37:54;;;;;;;14.55;7.75;;;15.10;99.90;;;;;;5078696;28;20047;-76
2022/08/12 02:40:24;;;;;;;14.65;8.20;;;15.10;99.90;;;;;;5078949;28;20059;-76
2022/08/12 02:43:05;;;;;;;15.95;7.97;;;15.10;99.90;;;;;;5060493;28;20463;-74
2022/08/12 02:46:02;;;;;;;12.73;7.75;;;15.00;99.90;;;;;;5061250;28;20064;-74
2022/08/12 02:48:54;;;;;;;13.95;7.32;;;15.00;99.90;;;;;;5077744;28;20059;-76
2022/08/12 02:51:24;;;;;;;18.08;7.82;;;14.80;99.90;;;;;;5044267;28;20363;-75
2022/08/12 02:53:53;;;;;;;13.40;8.05;;;14.90;99.90;;;;;;5077815;28;20052;-76
2022/08/12 02:56:36;;;;;;;15.05;7.32;;;15.00;99.90;;;;;;5062405;28;20056;-75
2022/08/12 02:59:09;;;;;;;15.30;7.68;;;15.00;99.90;;;;;;5060462;28;20057;-73
2022/08/12 03:01:52;;;;;;;16.48;7.65;;;14.90;99.90;;;;;;5059926;28;20044;-74
2022/08/12 03:04:46;;;;;;;16.40;8.25;;;14.90;99.90;;;;;;5077989;28;20040;-76
2022/08/12 03:07:19;;;;;;;14.55;8.40;;;14.80;99.90;;;;;;5078105;28;20452;-75
2022/08/12 03:10:05;;;;;;;14.45;8.02;;;14.80;99.90;;;;;;5059324;28;20040;-76
2022/08/12 03:12:44;;;;;;;13.77;8.18;;;14.80;99.90;;;;;;5044947;28;20048;-77
2022/08/12 03:15:21;;;;;;;14.93;8.48;;;14.80;99.90;;;;;;5043010;28;20055;-74
2022/08/12 03:18:02;;;;;;;13.88;8.38;;;14.70;99.90;;;;;;5076848;28;20048;-75
2022/08/12 03:20:49;;;;;;;17.33;8.13;;;14.70;99.90;;;;;;5077747;28;20040;-76
2022/08/12 03:23:20;;;;;;;14.90;7.97;;;14.70;99.90;;;;;;5076989;28;20067;-76
2022/08/12 03:26:01;;;;;;;17.15;8.05;;;14.60;99.90;;;;;;5077537;28;20052;-76
2022/08/12 03:28:52;;;;;;;15.40;7.80;;;15.00;99.90;;;;;;5076654;28;20444;-73
2022/08/12 03:31:31;;;;;;;12.73;7.32;;;14.70;99.90;;;;;;5043562;28;20459;-76
2022/08/12 03:34:02;;;;;;;12.48;7.72;;;14.70;99.90;;;;;;5077935;28;20055;-75
2022/08/12 03:36:34;;;;;;;12.82;7.55;;;14.70;99.90;;;;;;5075280;28;20463;-74
2022/08/12 03:39:23;;;;;;;13.82;8.02;;;14.70;99.90;;;;;;5077828;28;20052;-76
2022/08/12 03:42:09;;;;;;;16.65;8.13;;;14.70;99.90;;;;;;5044195;28;20044;-74
2022/08/12 04:01:56;;;;;;;13.00;8.40;;;14.70;99.90;;;;;;5058319;28;20517;-75
2022/08/12 04:04:33;;;;;;;12.88;8.30;;;14.70;99.90;;;;;;5059732;28;20053;-73
2022/08/12 04:07:08;;;;;;;21.30;9.23;;;14.50;99.90;;;;;;5076801;28;20052;-77
2022/08/12 04:09:38;;;;;;;15.25;9.05;;;14.50;99.90;;;;;;5042219;28;20049;-73
2022/08/12 04:15:11;;;;;;;15.07;9.23;;;15.10;99.90;;;;;;5058061;28;20048;-74
2022/08/12 04:17:41;;;;;;;14.70;9.07;;;14.40;99.90;;;;;;5059486;28;20055;-74
2022/08/12 04:20:29;;;;;;;14.95;8.68;;;14.40;99.90;;;;;;5062748;28;20044;-78
2022/08/12 04:22:57;;;;;;;14.35;9.60;;;14.30;99.90;;;;;;5058275;28;20375;-78
2022/08/12 04:25:28;;;;;;;20.17;9.80;;;14.50;99.90;;;;;;5059499;28;20053;-75
2022/08/12 04:27:56;;;;;;;24.08;10.23;;;14.40;99.90;;;;;;5042027;28;20077;-73
2022/08/12 04:30:40;;;;;;;13.13;9.60;;;14.30;99.90;;;;;;5076725;28;20044;-75
2022/08/12 04:33:11;;;;;;;15.00;9.18;;;14.30;99.90;;;;;;5059338;28;20048;-74
2022/08/12 04:35:39;;;;;;;14.40;9.18;;;14.30;99.90;;;;;;5058170;28;20040;-76
2022/08/12 04:38:07;;;;;;;17.23;9.35;;;14.50;99.90;;;;;;5076000;28;20048;-75
2022/08/12 04:40:38;;;;;;;18.20;9.57;;;14.40;99.90;;;;;;5058818;28;20364;-76
2022/08/12 04:43:06;;;;;;;15.10;8.95;;;14.40;99.90;;;;;;5075792;28;20055;-76
2022/08/12 04:45:54;;;;;;;;;;;14.30;99.90;;;;;;5045691;28;20045;-76
2022/08/12 04:48:21;;;;;;;14.25;8.73;;;14.10;99.90;;;;;;5074191;28;20340;-76
2022/08/12 04:50:49;;;;;;;13.73;9.13;;;14.30;99.90;;;;;;5075867;28;20060;-74
2022/08/12 04:53:17;;;;;;;18.45;9.73;;;14.30;99.90;;;;;;5026215;28;20447;-76
2022/08/12 04:55:46;;;;;;;15.90;9.57;;;14.30;99.90;;;;;;5074738;28;20067;-77
2022/08/12 04:58:14;;;;;;;15.98;9.57;;;14.30;99.90;;;;;;5075592;28;20045;-73
2022/08/12 05:00:56;;;;;;;15.25;9.43;;;14.30;99.90;;;;;;5076010;28;20348;-76
2022/08/12 05:03:27;;;;;;;12.43;9.13;;;14.20;99.90;;;;;;5074643;28;20055;-75
2022/08/12 05:06:12;;;;;;;14.80;9.35;;;14.30;99.90;;;;;;5041743;28;20059;-74
2022/08/12 05:09:00;;;;;;;14.57;8.80;;;15.20;99.90;;;;;;5057209;28;20052;-75
2022/08/12 05:11:31;;;;;;;14.95;9.05;;;14.30;99.90;;;;;;5058475;28;20482;-77
2022/08/12 05:14:00;;;;;;;14.10;8.52;;;14.30;99.90;;;;;;5075919;28;20045;-74
2022/08/12 05:16:29;;;;;;;14.82;9.13;;;15.10;99.90;;;;;;5074433;28;20056;-74
2022/08/12 05:19:02;;;;;;;15.98;9.45;;;14.30;99.90;;;;;;5042058;28;20056;-74
2022/08/12 05:21:30;;;;;;;14.32;8.75;;;14.40;99.90;;;;;;5074675;28;20048;-76
2022/08/12 05:23:59;;;;;;;14.57;7.95;;;14.40;99.90;;;;;;5057944;28;20055;-74
2022/08/12 05:26:28;;;;;;;17.60;8.75;;;14.50;99.90;;;;;;5040875;28;20079;-77
2022/08/12 05:28:55;;;;;;;14.10;8.38;;;14.40;99.90;;;;;;5056795;28;20379;-74
2022/08/12 05:31:23;;;;;;;15.82;8.45;;;14.60;99.90;;;;;;5075598;28;20459;-76
2022/08/12 05:34:14;;;;;;;16.08;8.27;;;14.60;99.90;;;;;;5057998;28;20055;-74
2022/08/12 05:36:44;;;;;;;15.70;8.02;;;14.60;99.90;;;;;;5074359;28;20049;-75
2022/08/12 05:39:12;;;;;;;13.40;8.18;;;14.60;99.90;;;;;;5057766;28;20386;-75
2022/08/12 05:41:40;;;;;;;14.50;8.30;;;14.70;99.90;;;;;;5040044;28;20458;-72
2022/08/12 05:44:12;;;;;;;13.63;8.07;;;14.80;99.90;;;;;;5058042;28;20049;-78
2022/08/12 05:46:40;;;;;;;16.92;8.27;;;14.80;99.90;;;;;;5057691;28;20048;-78
2022/08/12 05:49:08;;;;;;;18.33;8.40;;;14.80;99.90;;;;;;5073857;28;20047;-76
2022/08/12 05:51:36;;;;;;;;;;;14.90;99.90;;;;;;5058032;28;20044;-76
2022/08/12 05:54:09;;;;;;;15.68;8.13;;;14.60;99.90;;;;;;5057157;28;19920;-77
2022/08/12 05:56:39;;;;;;;17.60;8.25;;;15.00;99.90;;;;;;5056374;28;20040;-74
2022/08/12 05:59:09;;;;;;;14.95;8.10;;;15.00;99.90;;;;;;5040739;28;20044;-74
2022/08/12 06:01:39;;;;;;;15.18;8.65;;;15.00;99.90;;;;;;5039958;28;20471;-75
2022/08/12 06:04:28;;;;;;;16.38;8.30;;;15.10;99.90;;;;;;5074938;28;20371;-77
2022/08/12 06:06:55;;;;;;;16.88;8.18;;;15.10;99.90;;;;;;5074978;28;20377;-76
2022/08/12 06:09:25;;;;;;;12.70;7.63;;;15.20;99.90;;;;;;5073457;28;20044;-76
2022/08/12 06:11:53;;;;;;;14.93;8.13;;;15.20;99.90;;;;;;5074571;28;20048;-78
2022/08/12 06:14:35;;;;;;;15.48;8.23;;;15.30;99.90;;;;;;5073655;28;20055;-75
2022/08/12 06:17:07;;;;;;;16.10;9.18;;;15.30;99.90;;;;;;5074748;28;20049;-74
2022/08/12 06:19:36;;;;;;;16.77;8.57;;;15.40;99.90;;;;;;5056840;28;20048;-75
2022/08/12 06:22:27;;;;;;;17.35;8.73;;;15.70;99.90;;;;;;5059454;28;20044;-77
2022/08/12 06:24:54;;;;;;;19.58;9.00;;;15.60;99.90;;;;;;5057180;28;20067;-77
2022/08/12 06:27:22;;;;;;;20.15;9.73;;;15.70;99.90;;;;;;5074570;28;20049;-77
2022/08/12 06:29:50;;;;;;;16.27;9.48;;;16.40;99.90;;;;;;5073267;28;20041;-74
2022/08/12 06:32:37;;;;;;;;;;;15.90;99.90;;;;;;5073680;28;20052;-74
2022/08/12 06:35:26;;;;;;;17.13;10.25;;;16.00;99.90;;;;;;5071432;28;20331;-73
2022/08/12 06:38:17;;;;;;;17.02;9.63;;;16.00;99.90;;;;;;5074284;28;20055;-72
2022/08/12 06:43:33;;;;;;;15.93;10.52;;;16.20;99.90;;;;;;5074164;28;20044;-73
2022/08/12 06:46:24;;;;;;;;;;;16.40;99.90;;;;;;5074672;28;20467;-73
2022/08/12 06:48:57;;;;;;;19.25;10.80;;;16.50;99.90;;;;;;5055671;28;19921;-71
2022/08/12 06:51:27;;;;;;;23.10;10.68;;;16.60;99.90;;;;;;5074175;28;20039;-71
2022/08/12 06:53:56;;;;;;;20.02;9.48;;;16.70;99.90;;;;;;5073987;28;20471;-72
2022/08/12 06:56:24;;;;;;;21.05;10.95;;;16.80;99.90;;;;;;5055185;28;20060;-73
2022/08/12 06:59:13;;;;;;;;;;;17.00;99.90;;;;;;5074490;28;20051;-73
2022/08/12 07:01:41;;;;;;;17.20;10.93;;;16.90;99.90;;;;;;5072964;28;19927;-73
2022/08/12 07:04:19;;;;;;;23.48;10.32;;;17.20;99.90;;;;;;5073759;28;20057;-72
2022/08/12 07:07:07;;;;;;;15.65;10.20;;;17.30;99.90;;;;;;5073757;28;20052;-73
2022/08/12 07:09:36;;;;;;;17.40;10.00;;;17.40;99.90;;;;;;5072784;28;20044;-72
2022/08/12 07:12:26;;;;;;;20.02;10.10;;;17.50;99.90;;;;;;5042457;28;20044;-76
2022/08/12 07:15:00;;;;;;;20.23;9.82;;;17.60;99.90;;;;;;5042535;28;20044;-79
2022/08/12 07:17:34;;;;;;;24.33;10.63;;;18.10;99.90;;;;;;5076915;28;20475;-77
2022/08/12 07:20:08;;;;;;;20.55;11.55;;;17.70;99.90;;;;;;5044331;28;20455;-75
2022/08/12 07:22:37;;;;;;;23.17;10.90;;;17.90;99.90;;;;;;5076977;28;20052;-79
2022/08/12 07:27:53;;;;;;;21.33;10.25;;;18.10;99.90;;;;;;5076279;28;20067;-78
2022/08/12 07:30:21;;;;;;;16.73;9.07;;;18.30;99.90;;;;;;5077761;28;20040;-75
2022/08/12 07:32:50;;;;;;;;;;;18.30;99.90;;;;;;5077941;28;20474;-76
2022/08/12 07:35:19;;;;;;;24.15;9.75;;;18.60;99.90;;;;;;5059142;28;19924;-79
2022/08/12 07:37:49;;;;;;;22.40;10.40;;;18.50;99.90;;;;;;5043404;28;20036;-80
2022/08/12 07:40:17;;;;;;;20.35;9.90;;;18.90;99.90;;;;;;5059344;28;20056;-77
2022/08/12 07:42:45;;;;;;;;;;;18.70;99.90;;;;;;5059039;28;20059;-79
2022/08/12 07:45:13;;;;;;;20.02;9.10;;;18.00;99.90;;;;;;5043030;28;19920;-74
2022/08/12 07:47:42;;;;;;;;;;;19.10;99.90;;;;;;5077687;28;20383;-77
2022/08/12 07:50:11;;;;;;;22.55;9.05;;;18.90;99.90;;;;;;5077397;28;19920;-77
2022/08/12 07:52:44;;;;;;;22.90;8.93;;;19.90;99.90;;;;;;5059751;28;20463;-79
2022/08/12 07:55:13;;;;;;;21.40;8.60;;;19.30;99.90;;;;;;5058876;28;20045;-80
2022/08/12 07:57:58;;;;;;;23.52;8.77;;;19.40;99.90;;;;;;5077164;28;20048;-77
2022/08/12 08:00:28;;;;;;;24.40;8.52;;;19.80;99.90;;;;;;5076917;28;20067;-77
2022/08/12 08:02:57;;;;;;;24.02;8.00;;;19.60;99.90;;;;;;5041158;28;20052;-75
2022/08/12 08:05:30;;;;;;;28.52;8.55;;;19.90;99.90;;;;;;5059276;28;20057;-79
2022/08/12 08:08:00;;;;;;;23.33;8.45;;;20.00;99.90;;;;;;5024710;28;20056;-75
2022/08/12 08:10:29;;;;;;;25.30;7.47;;;19.90;99.90;;;;;;5076818;28;20383;-79
2022/08/12 08:12:58;;;;;;;17.08;7.07;;;20.00;99.90;;;;;;5059339;28;20048;-76
2022/08/12 08:15:29;;;;;;;23.33;7.28;;;20.70;99.90;;;;;;5075561;28;20045;-77
2022/08/12 08:18:20;;;;;;;30.23;7.00;;;20.30;99.90;;;;;;5076412;28;20048;-76
2022/08/12 08:20:55;;;;;;;22.20;7.00;;;21.00;99.90;;;;;;5076771;28;20367;-81
2022/08/12 08:24:13;;;;;;;17.92;6.30;;;20.60;99.90;;;;;;5057824;28;20071;-75
2022/08/12 08:26:14;;;;;;;20.02;5.57;;;20.70;99.90;;;;;;5076136;28;20048;-76
2022/08/12 08:28:45;;;;;;;18.35;5.60;;;20.90;99.90;;;;;;5075133;28;20052;-80
2022/08/12 08:31:13;;;;;;;20.05;5.70;;;20.00;99.90;;;;;;5059141;28;20041;-79
2022/08/12 08:33:40;;;;;;;21.92;5.68;;;21.40;99.90;;;;;;5059144;28;20049;-78
2022/08/12 08:36:28;;;;;;;26.70;5.30;;;21.40;99.90;;;;;;5057519;28;20055;-78
2022/08/12 08:38:56;;;;;;;17.63;5.22;;;21.40;99.90;;;;;;5041639;28;20052;-74
2022/08/12 08:44:36;;;;;;;17.30;5.03;;;20.40;98.50;;;;;;5076114;28;20044;-79
2022/08/12 08:47:06;;;;;;;12.63;4.47;;;21.80;98.30;;;;;;5058402;28;20053;-76
2022/08/12 08:49:37;;;;;;;15.20;4.30;;;22.10;97.90;;;;;;5074735;28;20363;-79
2022/08/12 08:52:07;;;;;;;17.58;5.00;;;22.20;97.50;;;;;;5076178;28;20048;-78
2022/08/12 08:54:36;;;;;;;18.92;4.30;;;22.10;97.10;;;;;;5040019;28;20048;-79
2022/08/12 08:57:07;;;;;;;21.00;4.82;;;22.20;96.70;;;;;;5075706;28;20367;-78
2022/08/12 08:59:35;;;;;;;16.23;4.50;;;22.40;96.40;;;;;;5040936;28;20063;-76
2022/08/12 09:02:05;;;;;;;16.08;4.15;;;22.50;96.30;;;;;;5056460;28;20056;-77
2022/08/12 09:04:35;;;;;;;16.38;4.30;;;22.60;96.10;;;;;;5075875;28;20052;-77
2022/08/12 09:07:22;;;;;;;13.30;4.07;;;22.70;95.30;;;;;;5075665;28;20041;-81
2022/08/12 09:10:11;;;;;;;;;;;22.80;95.30;;;;;;5061259;28;20043;-78
2022/08/12 09:15:51;;;;;;;17.30;3.83;;;23.20;94.30;;;;;;5056073;28;20371;-77
2022/08/12 09:18:26;;;;;;;10.05;3.10;;;23.20;94.60;;;;;;5075266;28;20045;-80
2022/08/12 09:21:02;;;;;;;15.80;3.72;;;23.30;93.20;;;;;;5075550;28;20044;-80
2022/08/12 09:23:35;;;;;;;14.27;3.70;;;23.50;92.80;;;;;;5075624;28;20438;-78
2022/08/12 09:26:23;;;;;;;12.27;3.35;;;23.60;92.40;;;;;;5057702;28;20052;-77
2022/08/12 09:28:56;;;;;;;10.90;3.47;;;23.60;91.80;;;;;;5074040;28;20479;-77
2022/08/12 09:31:24;;;;;;;14.38;3.80;;;23.80;91.30;;;;;;5057687;28;20064;-79
2022/08/12 09:34:13;;;;;;;11.18;3.45;;;24.00;91.40;;;;;;5074948;28;20063;-81
2022/08/12 09:37:02;;;;;;;11.98;3.60;;;24.10;90.60;;;;;;5060297;28;20048;-81
2022/08/12 09:39:52;;;;;;;15.43;3.83;;;24.30;90.60;;;;;;5075448;28;20041;-79
2022/08/12 09:45:36;;;;;;;11.75;3.28;;;24.60;90.30;;;;;;5057228;28;20131;-76
2022/08/12 09:48:23;;;;;;;;;;;24.70;89.80;;;;;;5074285;28;20040;-80
2022/08/12 09:50:52;;;;;;;14.10;3.28;;;24.80;87.30;;;;;;5057379;28;19920;-79
2022/08/12 09:53:24;;;;;;;10.98;3.17;;;24.90;88.30;;;;;;5057793;28;20048;-77
2022/08/12 09:56:03;;;;;;;8.63;3.08;;;25.00;87.80;;;;;;5073654;28;20041;-78
2022/08/12 09:58:52;;;;;;;11.88;3.30;;;25.10;86.80;;;;;;5040439;28;20059;-80
2022/08/12 10:01:29;;;;;;;10.82;3.42;;;25.30;86.70;;;;;;5056826;28;20071;-77
2022/08/12 10:04:16;;;;;;;10.32;3.20;;;25.40;85.30;;;;;;5060129;28;20052;-77
2022/08/12 10:06:47;;;;;;;10.32;3.28;;;25.50;84.60;;;;;;5075122;28;20383;-79
2022/08/12 10:09:24;;;;;;;9.77;3.10;;;25.70;84.70;;;;;;5056511;28;20048;-81
2022/08/12 10:15:06;;;;;;;13.85;3.35;;;25.90;83.10;;;;;;5073683;28;20041;-79
2022/08/12 10:17:41;;;;;;;15.75;3.35;;;25.90;82.90;;;;;;5074643;28;20061;-81
2022/08/12 10:20:29;;;;;;;11.60;3.03;;;26.10;83.00;;;;;;5074620;28;20044;-81
2022/08/12 10:23:00;;;;;;;12.85;3.63;;;26.10;82.20;;;;;;5056492;28;20048;-80
2022/08/12 10:31:30;;;;;;;12.45;3.13;;;27.00;81.00;;;;;;5056685;28;20052;-78
2022/08/12 10:34:22;;;;;;;16.27;3.03;;;26.50;79.80;;;;;;5074571;28;20037;-77
2022/08/12 10:36:59;;;;;;;13.63;3.42;;;27.10;79.50;;;;;;5057830;28;20337;-79
2022/08/12 10:39:47;;;;;;;13.57;3.10;;;26.80;78.00;;;;;;5074720;28;20048;-81
2022/08/12 10:45:30;;;;;;;9.73;2.72;;;27.00;77.40;;;;;;5074798;28;20056;-80
2022/08/12 10:47:57;;;;;;;12.77;3.38;;;27.10;77.90;;;;;;5059001;28;20055;-80
2022/08/12 10:50:45;;;;;;;;;;;27.10;76.30;;;;;;5078918;28;20060;-79
2022/08/12 10:53:35;;;;;;;12.05;2.90;;;27.30;74.80;;;;;;5078167;28;19931;-76
2022/08/12 10:56:14;;;;;;;9.93;2.90;;;27.40;75.80;;;;;;5076839;28;20050;-80
2022/08/12 10:58:44;;;;;;;9.88;2.85;;;27.50;75.00;;;;;;5060469;28;20049;-78
2022/08/12 11:01:17;;;;;;;10.93;2.78;;;27.70;73.60;;;;;;5076844;28;20053;-81
2022/08/12 11:04:12;;;;;;;10.73;3.20;;;27.80;73.10;;;;;;5064326;28;20048;-80
2022/08/12 11:07:00;;;;;;;10.23;2.78;;;27.80;74.80;;;;;;5063907;28;20049;-71
2022/08/12 11:09:47;;;;;;;;;;;27.80;73.80;;;;;;5076738;28;20355;-71
2022/08/12 11:12:29;;;;;;;10.43;2.58;;;28.00;69.50;;;;;;5077352;28;20274;-71
2022/08/12 11:15:20;;;;;;;10.60;2.55;;;28.00;71.30;;;;;;5076431;28;20044;-70
2022/08/12 11:18:08;;;;;;;6.60;2.70;;;28.10;70.50;;;;;;5077317;28;20040;-72
2022/08/12 11:20:46;;;;;;;6.15;2.50;;;28.10;70.10;;;;;;5059366;28;20049;-71
2022/08/12 11:23:14;;;;;;;9.70;2.60;;;28.20;69.60;;;;;;5075933;28;20379;-70
2022/08/12 11:26:03;;;;;;;6.22;2.42;;;28.30;69.60;;;;;;5062919;28;20383;-71
2022/08/12 11:28:34;;;;;;;10.27;2.55;;;28.40;68.70;;;;;;5076211;28;20489;-70
2022/08/12 11:31:06;;;;;;;11.27;2.38;;;28.40;68.00;;;;;;5077094;28;20045;-72
2022/08/12 11:33:42;;;;;;;11.27;2.90;;;28.40;66.80;;;;;;5076968;28;20044;-72
2022/08/12 11:36:30;;;;;;;8.98;2.33;;;28.50;66.30;;;;;;5058088;28;20052;-72
2022/08/12 11:38:58;;;;;;;7.15;2.90;;;29.60;66.20;;;;;;5076925;28;20048;-74
2022/08/12 11:41:33;;;;;;;7.38;2.30;;;28.50;65.10;;;;;;5075885;28;20059;-81
2022/08/12 11:44:02;;;;;;;9.32;2.00;;;28.60;64.00;;;;;;5059225;28;20048;-71
2022/08/12 11:46:53;;;;;;;11.40;2.40;;;28.70;63.40;;;;;;5076866;28;20453;-71
2022/08/12 11:49:25;;;;;;;14.77;2.50;;;28.80;62.60;;;;;;5075687;28;20048;-73
2022/08/12 11:52:00;;;;;;;12.88;2.63;;;28.90;62.40;;;;;;5076549;28;20044;-71
2022/08/12 11:54:28;;;;;;;8.10;2.10;;;29.00;61.70;;;;;;5075510;28;20060;-71
2022/08/12 11:57:00;;;;;;;5.90;2.10;;;29.00;60.80;;;;;;5076179;28;20045;-71
2022/08/12 11:59:31;;;;;;;6.47;2.40;;;29.10;59.90;;;;;;5076617;28;20059;-69
2022/08/12 12:02:19;;;;;;;5.90;2.10;;;29.20;59.60;;;;;;5060911;28;20051;-70
2022/08/12 12:04:49;;;;;;;11.57;2.50;;;28.80;59.10;;;;;;5076492;28;20044;-71
2022/08/12 12:07:23;;;;;;;6.65;1.88;;;29.30;59.60;;;;;;5076250;28;20366;-68
2022/08/12 12:10:12;;;;;;;6.07;2.17;;;29.40;58.40;;;;;;5057310;28;20068;-72
2022/08/12 12:12:41;;;;;;;3.83;1.98;;;29.50;57.90;;;;;;5076371;28;20048;-72
2022/08/12 12:15:17;;;;;;;7.20;2.50;;;29.50;57.30;;;;;;5075247;28;20383;-71
2022/08/12 12:17:52;;;;;;;7.30;2.10;;;29.60;57.60;;;;;;5076284;28;20478;-73
2022/08/12 12:20:22;;;;;;;7.68;2.35;;;29.70;57.10;;;;;;5076003;28;20041;-71
2022/08/12 12:22:56;;;;;;;7.30;2.17;;;29.80;56.70;;;;;;5075114;28;20068;-71
2022/08/12 12:25:24;;;;;;;7.35;2.42;;;29.80;56.60;;;;;;5074299;28;20052;-72
2022/08/12 12:28:13;;;;;;;13.18;2.25;;;29.90;56.80;;;;;;5074226;28;20048;-71
2022/08/12 12:31:03;;;;;;;10.35;2.38;;;29.90;56.90;;;;;;5076076;28;20063;-70
2022/08/12 12:33:41;;;;;;;6.45;2.42;;;29.90;56.50;;;;;;5076021;28;20044;-70
2022/08/12 12:36:24;;;;;;;8.50;2.40;;;29.90;56.40;;;;;;5074537;28;20045;-72
2022/08/12 12:38:57;;;;;;;10.20;2.50;;;29.90;56.40;;;;;;5076054;28;20056;-72
2022/08/12 12:41:28;;;;;;;9.80;2.35;;;30.00;56.60;;;;;;5074785;28;20044;-75
2022/08/12 12:44:15;;;;;;;8.93;2.30;;;30.00;56.10;;;;;;5076307;28;20055;-73
2022/08/12 12:47:04;;;;;;;7.15;2.45;;;30.10;56.00;;;;;;5075675;28;20052;-73
2022/08/12 12:49:51;;;;;;;9.27;2.30;;;30.10;55.80;;;;;;5056812;28;20048;-70
2022/08/12 12:52:20;;;;;;;4.82;2.15;;;30.20;55.70;;;;;;5075430;28;20459;-70
2022/08/12 12:54:54;;;;;;;9.75;2.00;;;30.20;55.60;;;;;;5068092;28;20382;-72
2022/08/12 12:57:23;;;;;;;10.52;2.17;;;30.20;54.30;;;;;;5073780;28;20037;-72
2022/08/12 13:00:14;;;;;;;11.07;2.38;;;30.30;54.20;;;;;;5075217;28;20040;-72
2022/08/12 13:02:52;;;;;;;4.97;1.95;;;30.30;54.00;;;;;;5056761;28;20463;-74
2022/08/12 13:05:31;;;;;;;8.45;2.53;;;30.30;54.50;;;;;;5057357;28;20383;-73
2022/08/12 13:08:23;;;;;;;6.25;2.28;;;30.40;53.50;;;;;;5072650;28;20371;-69
2022/08/12 13:11:04;;;;;;;7.25;2.13;;;30.50;53.30;;;;;;5073833;28;20371;-71
2022/08/12 13:13:35;;;;;;;6.68;2.10;;;30.50;53.30;;;;;;5074675;28;20048;-73
2022/08/12 13:16:25;;;;;;;8.10;2.67;;;30.50;53.50;;;;;;5074229;28;20044;-74
2022/08/12 13:18:53;;;;;;;10.30;2.10;;;30.60;54.10;;;;;;5075550;28;20052;-76
2022/08/12 13:21:28;;;;;;;7.05;2.10;;;30.60;53.30;;;;;;5057008;28;20308;-73
2022/08/12 13:24:03;;;;;;;13.13;2.40;;;30.60;53.10;;;;;;5058734;28;20047;-76
2022/08/12 13:26:38;;;;;;;6.45;2.08;;;30.60;52.50;;;;;;5057106;28;20079;-74
2022/08/12 13:29:06;;;;;;;5.35;1.92;;;30.60;51.70;;;;;;5074009;28;20055;-73
2022/08/12 13:31:40;;;;;;;7.63;2.20;;;30.70;51.50;;;;;;5074199;28;20055;-75
2022/08/12 13:34:28;;;;;;;6.47;1.90;;;30.70;51.10;;;;;;5055823;28;20498;-75
2022/08/12 13:37:05;;;;;;;5.47;2.20;;;29.00;49.90;;;;;;5056877;28;20375;-73
2022/08/12 13:39:37;;;;;;;8.10;2.10;;;30.80;50.80;;;;;;5075299;28;20052;-76
2022/08/12 13:42:08;;;;;;;8.02;2.20;;;30.80;51.10;;;;;;5056545;28;20052;-75
2022/08/12 13:44:41;;;;;;;6.45;2.42;;;30.90;51.20;;;;;;5057767;28;20463;-75
2022/08/12 13:47:10;;;;;;;15.88;2.40;;;31.10;50.70;;;;;;5074739;28;20478;-77
2022/08/12 13:49:51;;;;;;;6.07;2.33;;;31.20;50.20;;;;;;5073722;28;20049;-73
2022/08/12 13:52:23;;;;;;;6.65;1.85;;;31.60;50.00;;;;;;5074914;28;20360;-73
2022/08/12 13:54:52;;;;;;;4.82;2.20;;;32.10;49.50;;;;;;5073604;28;20049;-70
2022/08/12 13:57:39;;;;;;;6.82;1.88;;;32.70;48.90;;;;;;5056611;28;20047;-69
2022/08/12 14:00:14;;;;;;;10.68;2.00;;;33.40;47.90;;;;;;5075051;28;20123;-72
2022/08/12 14:02:43;;;;;;;6.32;2.30;;;34.30;47.70;;;;;;5056199;28;20490;-71
2022/08/12 14:05:10;;;;;;;5.78;2.15;;;34.80;46.60;;;;;;5074772;28;20075;-73
2022/08/12 14:07:59;;;;;;;5.93;1.98;;;35.40;50.00;;;;;;5058899;28;20047;-73
2022/08/12 14:10:36;;;;;;;5.60;1.90;;;36.00;47.90;;;;;;5075086;28;20052;-73
2022/08/12 14:13:10;;;;;;;6.80;2.08;;;36.40;45.70;;;;;;5074175;28;20060;-74
2022/08/12 14:16:00;;;;;;;7.68;2.00;;;37.00;43.90;;;;;;5073414;28;20048;-73
2022/08/12 14:18:32;;;;;;;7.95;2.08;;;37.50;44.30;;;;;;5074267;28;20048;-73
2022/08/12 14:21:08;;;;;;;7.70;2.25;;;37.80;43.80;;;;;;5080352;28;20498;-69
2022/08/12 14:23:40;;;;;;;5.45;1.90;;;37.80;42.80;;;;;;5081258;28;20041;-69
2022/08/12 14:26:27;;;;;;;5.78;1.83;;;38.10;43.00;;;;;;5063241;28;20044;-73
2022/08/12 14:28:55;;;;;;;6.90;2.13;;;38.40;43.00;;;;;;5079070;28;20060;-70
2022/08/12 14:31:28;;;;;;;10.65;2.10;;;38.50;42.50;;;;;;5081363;28;20045;-74
2022/08/12 14:33:59;;;;;;;5.05;1.77;;;38.50;42.20;;;;;;5079605;28;20467;-73
2022/08/12 14:36:31;;;;;;;8.60;1.95;;;38.40;41.60;;;;;;5079928;28;20123;-69
2022/08/12 14:39:03;;;;;;;9.05;1.98;;;38.80;41.50;;;;;;5080866;28;20051;-70
2022/08/12 14:41:33;;;;;;;5.95;1.85;;;38.90;41.30;;;;;;5062552;28;20406;-74
2022/08/12 14:44:16;;;;;;;9.88;1.95;;;39.00;41.20;;;;;;5065695;28;20379;-74
2022/08/12 14:47:03;;;;;;;7.43;2.00;;;39.00;41.00;;;;;;5062605;28;20052;-77
2022/08/12 14:49:34;;;;;;;12.38;2.05;;;39.10;40.70;;;;;;5079672;28;20064;-72
2022/08/12 14:52:23;;;;;;;7.47;1.85;;;39.30;40.30;;;;;;5081023;28;20479;-73
2022/08/12 14:55:13;;;;;;;4.93;2.20;;;39.60;40.70;;;;;;5079553;28;20486;-75
2022/08/12 14:58:01;;;;;;;6.60;2.00;;;39.80;40.20;;;;;;5080485;28;20036;-74
2022/08/12 15:03:26;;;;;;;6.78;1.88;;;40.00;39.80;;;;;;5080036;28;20053;-74
2022/08/12 15:06:15;;;;;;;10.30;2.08;;;40.00;40.00;;;;;;5080943;28;20048;-71
2022/08/12 15:09:05;;;;;;;6.93;1.90;;;40.10;40.30;;;;;;5080606;28;20052;-76
2022/08/12 15:11:34;;;;;;;9.13;2.08;;;39.90;39.50;;;;;;5046143;28;20505;-74
2022/08/12 15:14:31;;;;;;;4.97;1.88;;;39.80;39.70;;;;;;5080703;28;20360;-70
2022/08/12 15:17:07;;;;;;;7.22;2.13;;;39.70;38.70;;;;;;5081486;28;20044;-74
2022/08/12 15:19:35;;;;;;;8.35;1.88;;;39.70;39.50;;;;;;5080530;28;20497;-72